Terminal Aerodrome Forecast
Issued by NWS

Home | Current Version | Previous Version | Text Only | Print | Product List | Glossary On
Versions: 1 2 3 4 5 6 7 8 9 10 11 12 13 14 15 16 17 18 19
410
FTUS46 KSGX 252325
TAFSNA
TAF
KSNA 252325Z 2600/2624 22011KT P6SM BKN150
     FM260200 VRB04KT P6SM BKN150
     FM261000 VRB04KT P6SM BKN010 BKN150
     FM261500 VRB04KT P6SM BKN150
     FM261900 22011KT P6SM SCT200=

USA.gov is the U.S. government's official web portal to all federal, state and local government web resources and services.